createdAt,value
2022-11-28T00:04:15.837Z,6.34
2022-11-28T00:09:20.973Z,6.02
2022-11-28T00:14:25.251Z,5.75
2022-11-28T00:19:29.192Z,5.79
2022-11-28T00:24:31.758Z,6.35
2022-11-28T00:29:35.715Z,6.50
2022-11-28T00:34:38.261Z,5.23
2022-11-28T00:39:40.865Z,4.97
2022-11-28T00:44:44.887Z,5.19
2022-11-28T00:49:47.519Z,5.93
2022-11-28T00:54:50.263Z,4.40
2022-11-28T00:59:54.188Z,4.56
2022-11-28T01:04:56.763Z,5.30
2022-11-28T01:09:59.292Z,5.42
2022-11-28T01:15:03.947Z,5.49
2022-11-28T01:20:08.686Z,5.62
2022-11-28T01:25:12.494Z,5.80
2022-11-28T01:30:16.771Z,6.15
2022-11-28T01:35:19.606Z,5.17
2022-11-28T01:40:22.627Z,5.77
2022-11-28T01:45:30.870Z,5.83
2022-11-28T01:50:36.057Z,5.96
2022-11-28T01:55:43.977Z,5.35
2022-11-28T02:00:49.883Z,5.00
2022-11-28T02:05:53.636Z,5.12
2022-11-28T02:11:22.860Z,5.69
2022-11-28T02:16:49.120Z,5.70
2022-11-28T02:22:01.425Z,5.60
2022-11-28T02:27:25.035Z,5.43
2022-11-28T02:32:38.064Z,4.91
2022-11-28T02:37:49.467Z,5.25
2022-11-28T02:43:03.644Z,4.56
2022-11-28T02:48:12.227Z,4.92
2022-11-28T02:53:17.587Z,5.36
2022-11-28T02:58:20.207Z,5.09
2022-11-28T03:03:49.498Z,5.45
2022-11-28T03:09:07.327Z,6.05
2022-11-28T03:14:20.966Z,5.92
2022-11-28T03:19:31.298Z,5.58
2022-11-28T03:24:38.801Z,5.53
2022-11-28T03:29:45.211Z,5.30
2022-11-28T03:34:54.917Z,4.81
2022-11-28T03:40:03.406Z,5.28
2022-11-28T03:45:09.810Z,5.66
2022-11-28T03:50:18.824Z,5.46
2022-11-28T03:55:24.582Z,5.37
2022-11-28T04:00:27.504Z,5.84
2022-11-28T04:05:41.910Z,5.83
2022-11-28T04:10:47.085Z,6.48
2022-11-28T04:15:56.862Z,6.33
2022-11-28T04:21:07.341Z,6.76
2022-11-28T04:26:15.670Z,7.00
2022-11-28T04:31:24.969Z,6.97
2022-11-28T04:36:31.280Z,6.87
2022-11-28T04:41:37.045Z,6.83
2022-11-28T04:46:44.164Z,6.19
2022-11-28T04:51:55.435Z,5.96
2022-11-28T04:57:03.443Z,4.91
2022-11-28T05:02:07.300Z,6.05
2022-11-28T05:07:11.300Z,5.86
2022-11-28T05:12:13.868Z,6.03
2022-11-28T05:17:16.417Z,6.35
2022-11-28T05:22:20.314Z,6.31
2022-11-28T05:27:22.920Z,5.36
2022-11-28T05:32:25.500Z,6.26
2022-11-28T05:37:29.619Z,6.61
2022-11-28T05:42:33.848Z,6.59
2022-11-28T05:47:36.440Z,6.28
2022-11-28T05:52:40.528Z,6.28
2022-11-28T05:57:43.074Z,6.55
2022-11-28T06:02:45.778Z,5.70
2022-11-28T06:07:49.747Z,6.04
2022-11-28T06:12:52.353Z,6.38
2022-11-28T06:17:54.970Z,6.20
2022-11-28T06:22:59.053Z,6.21
2022-11-28T06:28:01.615Z,6.41
2022-11-28T06:33:04.205Z,6.36
2022-11-28T06:38:14.033Z,6.48
2022-11-28T06:43:17.166Z,5.17
2022-11-28T06:48:20.153Z,6.11
2022-11-28T06:53:26.140Z,5.58
2022-11-28T06:58:35.147Z,6.03
2022-11-28T07:03:39.893Z,6.13
2022-11-28T07:08:44.371Z,6.02
2022-11-28T07:13:47.929Z,5.49
2022-11-28T07:18:50.964Z,5.15
2022-11-28T07:23:55.120Z,5.12
2022-11-28T07:28:59.693Z,4.97
2022-11-28T07:34:04.153Z,4.82
2022-11-28T07:39:09.395Z,4.86
2022-11-28T07:44:13.017Z,5.13
2022-11-28T07:49:16.211Z,5.31
2022-11-28T07:54:20.181Z,5.12
2022-11-28T07:59:22.809Z,4.92
2022-11-28T08:04:25.653Z,4.47
2022-11-28T08:09:29.658Z,5.20
2022-11-28T08:14:32.341Z,5.03
2022-11-28T08:19:35.580Z,5.34
2022-11-28T08:24:41.226Z,5.37
2022-11-28T08:29:46.162Z,5.57
2022-11-28T08:34:51.803Z,5.60
2022-11-28T08:39:55.746Z,6.07
2022-11-28T08:44:58.387Z,6.74
2022-11-28T08:50:00.955Z,6.15
2022-11-28T08:55:05.979Z,5.98
2022-11-28T09:00:09.479Z,5.86
2022-11-28T09:05:12.097Z,6.35
2022-11-28T09:10:16.207Z,6.29
2022-11-28T09:15:19.246Z,6.10
2022-11-28T09:20:22.203Z,6.03
2022-11-28T09:25:26.356Z,6.30
2022-11-28T09:30:29.446Z,5.78
2022-11-28T09:35:32.049Z,6.02
2022-11-28T09:40:39.623Z,5.43
2022-11-28T09:45:42.911Z,5.35
2022-11-28T09:50:47.703Z,5.62
2022-11-28T09:55:55.588Z,6.20
2022-11-28T10:01:08.155Z,6.39
2022-11-28T10:06:20.121Z,6.49
2022-11-28T10:11:36.791Z,7.19
2022-11-28T10:16:52.073Z,6.78
2022-11-28T10:21:59.535Z,6.50
2022-11-28T10:27:05.750Z,6.80
2022-11-28T10:32:12.871Z,7.23
2022-11-28T10:37:20.733Z,6.45
2022-11-28T10:42:29.700Z,6.91
2022-11-28T10:47:48.784Z,7.16
2022-11-28T10:52:59.041Z,7.31
2022-11-28T10:58:12.001Z,7.73
2022-11-28T11:03:18.327Z,8.03
2022-11-28T11:08:23.047Z,8.22
2022-11-28T11:13:29.168Z,7.57
2022-11-28T11:18:36.123Z,7.67
2022-11-28T11:23:38.811Z,6.96
2022-11-28T11:28:46.059Z,7.50
2022-11-28T11:33:51.437Z,7.26
2022-11-28T11:39:06.746Z,7.08
2022-11-28T11:44:34.172Z,7.36
2022-11-28T11:49:39.269Z,7.27
2022-11-28T11:54:56.281Z,7.50
2022-11-28T12:00:04.612Z,7.89
2022-11-28T12:05:16.078Z,7.04
2022-11-28T12:10:22.412Z,6.97
2022-11-28T12:15:36.113Z,7.34
2022-11-28T12:20:49.283Z,7.68
2022-11-28T12:25:58.877Z,7.45
2022-11-28T12:31:16.394Z,7.91
2022-11-28T12:36:26.953Z,8.14
2022-11-28T12:41:54.812Z,7.80
2022-11-28T12:47:05.993Z,7.57
2022-11-28T12:52:18.290Z,8.41
2022-11-28T12:57:33.431Z,7.54
2022-11-28T13:02:51.913Z,7.58
2022-11-28T13:08:13.237Z,6.92
2022-11-28T13:13:21.002Z,6.92
2022-11-28T13:18:35.557Z,7.39
2022-11-28T13:23:44.672Z,6.93
2022-11-28T13:28:53.695Z,6.94
2022-11-28T13:33:58.772Z,7.02
2022-11-28T13:39:12.923Z,7.15
2022-11-28T13:44:22.705Z,7.20
2022-11-28T13:49:29.645Z,7.00
2022-11-28T13:54:35.572Z,7.59
2022-11-28T13:59:39.538Z,7.27
2022-11-28T14:04:47.873Z,6.91
2022-11-28T14:10:02.161Z,7.39
2022-11-28T14:15:15.517Z,7.17
2022-11-28T14:20:31.076Z,6.98
2022-11-28T14:25:39.931Z,6.30
2022-11-28T14:30:45.427Z,6.84
2022-11-28T14:36:34.016Z,6.64
2022-11-28T14:42:10.783Z,6.34
2022-11-28T14:47:17.367Z,5.98
2022-11-28T14:52:38.366Z,6.36
2022-11-28T14:57:59.007Z,6.32
2022-11-28T15:09:05.490Z,6.11
2022-11-28T15:14:20.574Z,6.33
2022-11-28T15:19:27.057Z,6.94
2022-11-28T15:24:33.054Z,7.28
2022-11-28T15:29:36.846Z,7.74
2022-11-28T15:34:39.944Z,7.45
2022-11-28T15:39:47.516Z,7.59
2022-11-28T15:44:55.740Z,7.61
2022-11-28T15:50:03.956Z,7.75
2022-11-28T15:55:17.513Z,7.99
2022-11-28T16:00:22.103Z,7.62
2022-11-28T16:05:24.606Z,7.32
2022-11-28T16:10:33.583Z,7.18
2022-11-28T16:15:37.257Z,7.48
2022-11-28T16:20:39.933Z,7.34
2022-11-28T16:25:44.090Z,7.72
2022-11-28T16:30:51.136Z,7.89
2022-11-28T16:35:55.759Z,7.87
2022-11-28T16:41:01.643Z,7.94
2022-11-28T16:46:07.398Z,7.81
2022-11-28T16:51:32.658Z,7.68
2022-11-28T16:56:45.212Z,7.72
2022-11-28T17:01:52.634Z,7.89
2022-11-28T17:06:57.441Z,7.16
2022-11-28T17:12:05.818Z,7.33
2022-11-28T17:17:13.297Z,7.72
2022-11-28T17:22:18.195Z,7.70
2022-11-28T17:27:22.176Z,7.59
2022-11-28T17:32:25.216Z,6.50
2022-11-28T17:37:27.864Z,6.90
2022-11-28T17:42:31.941Z,7.23
2022-11-28T17:47:34.581Z,6.73
2022-11-28T17:52:37.301Z,6.54
2022-11-28T17:57:42.300Z,5.57
2022-11-28T18:02:45.005Z,5.85
2022-11-28T18:07:47.712Z,6.21
2022-11-28T18:12:52.365Z,6.66
2022-11-28T18:17:54.812Z,6.93
2022-11-28T18:22:58.307Z,6.95
2022-11-28T18:28:02.250Z,6.72
2022-11-28T18:33:05.008Z,6.85
2022-11-28T18:38:09.021Z,6.94
2022-11-28T18:43:13.198Z,6.82
2022-11-28T18:48:15.745Z,7.12
2022-11-28T18:53:18.403Z,7.31
2022-11-28T18:58:22.370Z,7.49
2022-11-28T19:03:24.921Z,7.57
2022-11-28T19:08:27.657Z,7.23
2022-11-28T19:13:31.565Z,7.46
2022-11-28T19:18:34.205Z,7.41
2022-11-28T19:23:36.796Z,7.51
2022-11-28T19:28:42.227Z,7.40
2022-11-28T19:33:45.394Z,7.59
2022-11-28T19:38:48.031Z,7.64
2022-11-28T19:43:52.615Z,7.56
2022-11-28T19:48:55.161Z,7.55
2022-11-28T19:54:03.144Z,7.57
2022-11-28T19:59:07.747Z,7.27
2022-11-28T20:04:10.873Z,7.52
2022-11-28T20:09:14.267Z,7.25
2022-11-28T20:14:19.427Z,7.48
2022-11-28T20:19:22.803Z,7.62
2022-11-28T20:24:25.835Z,7.48
2022-11-28T20:29:29.855Z,7.38
2022-11-28T20:34:32.843Z,7.10
2022-11-28T20:39:35.435Z,7.47
2022-11-28T20:44:39.391Z,7.64
2022-11-28T20:49:42.268Z,6.99
2022-11-28T20:54:45.130Z,6.98
2022-11-28T20:59:49.134Z,6.73
2022-11-28T21:04:51.776Z,6.88
2022-11-28T21:10:00.840Z,7.07
2022-11-28T21:15:05.464Z,7.20
2022-11-28T21:20:08.486Z,7.11
2022-11-28T21:25:11.084Z,7.04
2022-11-28T21:30:15.210Z,7.32
2022-11-28T21:35:17.817Z,7.28
2022-11-28T21:40:20.554Z,7.07
2022-11-28T21:45:24.857Z,7.07
2022-11-28T21:50:27.667Z,6.55
2022-11-28T21:55:30.272Z,6.44
2022-11-28T22:00:52.586Z,6.61
2022-11-28T22:06:01.069Z,6.53
2022-11-28T22:11:04.903Z,6.16
2022-11-28T22:16:14.817Z,6.71
2022-11-28T22:26:40.410Z,6.97
2022-11-28T22:31:44.590Z,6.75
2022-11-28T22:36:47.202Z,7.08
2022-11-28T22:41:49.889Z,7.16
2022-11-28T22:46:53.924Z,6.85
2022-11-28T22:51:56.780Z,6.82
2022-11-28T22:56:59.955Z,6.85
2022-11-28T23:02:04.173Z,7.05
2022-11-28T23:07:06.841Z,7.23
2022-11-28T23:12:09.578Z,7.64
2022-11-28T23:17:13.670Z,7.64
2022-11-28T23:22:16.260Z,7.18
2022-11-28T23:27:18.871Z,7.42
2022-11-28T23:32:22.782Z,7.64
2022-11-28T23:37:25.546Z,7.63
2022-11-28T23:42:28.196Z,7.62
2022-11-28T23:47:32.555Z,7.60
2022-11-28T23:52:35.144Z,7.81
2022-11-28T23:57:37.720Z,7.65
